Time;durP1;ratioP1;P1;durP2;ratioP2;P2;SDS_P1;SDS_P2;PMS_P1;PMS_P2;Temp;Humidity;BMP_temperature;BMP_pressure;BME280_temperature;BME280_humidity;BME280_pressure;Samples;Min_cycle;Max_cycle;Signal;HPM_P1;HPM_P2
2023/05/20 00:03:48;;;;;;;18.25;12.60;;;;;;;10.40;84.33;98406.47;10503667;28;20629;-71
2023/05/20 00:09:09;;;;;;;20.38;12.90;;;;;;;10.34;84.83;98394.84;10517758;28;20550;-70
2023/05/20 00:14:30;;;;;;;22.65;13.98;;;;;;;10.34;84.76;98394.84;10517030;28;20119;-71
2023/05/20 00:19:51;;;;;;;20.15;12.43;;;;;;;10.35;85.00;98390.72;10531134;28;20119;-71
2023/05/20 00:25:15;;;;;;;19.83;12.88;;;;;;;10.31;84.98;98391.13;10530717;28;20119;-71
2023/05/20 00:30:39;;;;;;;22.92;14.48;;;;;;;10.29;84.82;98395.81;10530967;28;20127;-70
2023/05/20 00:35:59;;;;;;;21.42;13.45;;;;;;;10.29;85.29;98390.25;10530582;28;20374;-71
2023/05/20 00:41:20;;;;;;;17.73;12.27;;;;;;;10.30;84.88;98388.94;10516017;28;20071;-70
2023/05/20 00:46:41;;;;;;;21.65;12.32;;;;;;;10.40;84.73;98400.88;10515852;28;20058;-70
2023/05/20 00:52:01;;;;;;;21.08;13.35;;;;;;;10.54;84.58;98404.06;10488284;28;20067;-71
2023/05/20 00:57:22;;;;;;;21.65;14.10;;;;;;;10.55;84.15;98386.72;10528352;28;20075;-71
2023/05/20 01:02:43;;;;;;;20.75;13.48;;;;;;;10.52;84.69;98390.69;10515186;28;20430;-71
2023/05/20 01:08:04;;;;;;;21.95;13.80;;;;;;;10.57;84.42;98372.91;10528991;28;20149;-71
2023/05/20 01:13:27;;;;;;;21.83;13.18;;;;;;;10.45;84.50;98372.00;10528794;28;20074;-70
2023/05/20 01:18:48;;;;;;;19.38;12.98;;;;;;;10.38;84.34;98363.72;10514984;28;20076;-70
2023/05/20 01:24:09;;;;;;;21.52;13.32;;;;;;;10.30;85.49;98370.13;10514598;28;20170;-70
2023/05/20 01:29:31;;;;;;;18.40;12.15;;;;;;;10.28;84.86;98352.50;10514035;28;20185;-71
2023/05/20 01:34:52;;;;;;;20.85;13.73;;;;;;;10.29;85.81;98368.66;10514389;28;20115;-70
2023/05/20 01:40:14;;;;;;;20.45;13.15;;;;;;;10.30;85.51;98363.81;10513710;28;20169;-71
2023/05/20 01:45:37;;;;;;;22.27;13.73;;;;;;;10.29;85.37;98351.91;10513727;28;20161;-70
2023/05/20 01:50:58;;;;;;;20.13;13.48;;;;;;;10.18;85.31;98346.09;10513803;28;20534;-71
2023/05/20 01:56:18;;;;;;;21.67;13.80;;;;;;;10.08;86.09;98343.25;10527015;28;20463;-71
2023/05/20 02:01:39;;;;;;;19.67;13.30;;;;;;;9.97;86.36;98341.72;10526870;28;20119;-70
2023/05/20 02:07:00;;;;;;;19.63;13.20;;;;;;;9.93;87.13;98352.53;10498685;28;20119;-70
2023/05/20 02:12:20;;;;;;;21.45;13.98;;;;;;;9.87;87.18;98356.91;10526241;28;20060;-70
2023/05/20 02:17:42;;;;;;;19.15;11.68;;;;;;;9.86;86.93;98358.97;10526215;28;20063;-70
2023/05/20 02:23:04;;;;;;;19.40;12.18;;;;;;;9.86;88.02;98353.38;10512431;28;20040;-70
2023/05/20 02:28:25;;;;;;;22.13;13.95;;;;;;;9.89;88.00;98354.28;10511907;28;20198;-70
2023/05/20 02:33:48;;;;;;;17.38;13.07;;;;;;;9.91;88.30;98352.38;10526087;28;20217;-70
2023/05/20 02:39:08;;;;;;;20.60;13.32;;;;;;;9.93;88.17;98344.16;10525687;28;20474;-71
2023/05/20 02:44:30;;;;;;;18.67;13.23;;;;;;;9.96;87.57;98336.72;10511288;28;20098;-70
2023/05/20 02:49:51;;;;;;;18.40;12.10;;;;;;;9.94;87.42;98333.75;10497425;28;20043;-70
2023/05/20 02:55:13;;;;;;;22.60;13.32;;;;;;;9.94;87.93;98339.31;10497381;28;20124;-70
2023/05/20 03:00:39;;;;;;;19.80;12.98;;;;;;;9.92;87.82;98337.13;10497452;28;20072;-71
2023/05/20 03:06:00;;;;;;;19.95;13.30;;;;;;;9.89;88.65;98338.28;10511795;28;20116;-70
2023/05/20 03:11:21;;;;;;;26.10;14.13;;;;;;;9.95;88.13;98330.41;10510925;28;20595;-70
2023/05/20 03:16:41;;;;;;;19.85;14.05;;;;;;;9.98;88.16;98328.50;10511006;28;20114;-71
2023/05/20 03:22:03;;;;;;;20.02;13.90;;;;;;;9.97;88.01;98333.34;10500772;28;20142;-70
2023/05/20 03:27:26;;;;;;;19.63;13.20;;;;;;;9.97;88.91;98333.34;10519876;28;20115;-70
2023/05/20 03:32:47;;;;;;;21.20;14.50;;;;;;;9.97;89.24;98338.19;10547356;28;20060;-71
2023/05/20 03:38:08;;;;;;;21.02;14.50;;;;;;;10.02;89.09;98340.72;10518785;28;20068;-70
2023/05/20 03:43:31;;;;;;;20.20;13.88;;;;;;;9.98;89.20;98337.59;10532385;28;20074;-70
2023/05/20 03:48:51;;;;;;;19.70;13.60;;;;;;;10.00;89.31;98348.91;10518035;28;20123;-71
2023/05/20 03:54:12;;;;;;;19.77;14.13;;;;;;;10.07;89.17;98346.63;10532211;28;20538;-70
2023/05/20 03:59:34;;;;;;;18.20;12.93;;;;;;;10.11;89.62;98350.44;10517762;28;20067;-70
2023/05/20 04:04:56;;;;;;;20.27;14.55;;;;;;;10.15;88.73;98341.69;10531526;28;20048;-70
2023/05/20 04:10:18;;;;;;;21.65;14.05;;;;;;;10.24;89.37;98343.81;10531552;28;20040;-70
2023/05/20 04:15:40;;;;;;;17.42;13.32;;;;;;;10.57;88.23;98347.78;10503545;28;20124;-70
2023/05/20 04:21:01;;;;;;;22.48;13.30;;;;;;;10.79;87.53;98339.66;10517170;28;20063;-71
2023/05/20 04:26:22;;;;;;;19.90;13.45;;;;;;;11.07;87.43;98355.75;10530691;28;20117;-71
2023/05/20 04:31:46;;;;;;;17.70;12.50;;;;;;;11.43;86.44;98351.41;10516010;28;20129;-71
2023/05/20 04:37:08;;;;;;;18.25;12.73;;;;;;;11.85;85.72;98348.19;10530325;28;20119;-71
2023/05/20 04:42:29;;;;;;;18.60;13.23;;;;;;;12.32;84.00;98324.25;10516361;28;20570;-70
2023/05/20 04:47:52;;;;;;;18.65;13.90;;;;;;;12.89;81.68;98321.81;10501830;28;20482;-70
2023/05/20 04:53:13;;;;;;;17.00;12.55;;;;;;;13.51;80.19;98338.59;10544824;28;20044;-71
2023/05/20 04:58:34;;;;;;;19.98;13.38;;;;;;;13.68;75.40;98327.06;10529777;28;20054;-70
2023/05/20 05:03:55;;;;;;;17.85;12.75;;;;;;;13.61;75.16;98333.66;10529317;28;20119;-71
2023/05/20 05:09:16;;;;;;;17.35;12.15;;;;;;;13.61;74.19;98341.31;10529261;28;20115;-71
2023/05/20 05:14:37;;;;;;;18.55;12.32;;;;;;;13.43;74.19;98335.97;10514731;28;20106;-71
2023/05/20 05:19:58;;;;;;;15.93;12.30;;;;;;;13.91;72.34;98332.06;10514661;28;20071;-71
2023/05/20 05:25:22;;;;;;;19.13;13.30;;;;;;;14.32;69.73;98317.75;10528035;28;20128;-71
2023/05/20 05:30:43;;;;;;;17.77;13.35;;;;;;;14.23;68.54;98321.41;10499962;28;20127;-71
2023/05/20 05:36:05;;;;;;;15.48;11.93;;;;;;;14.50;68.99;98318.16;10500495;28;20115;-70
2023/05/20 05:41:26;;;;;;;16.63;12.35;;;;;;;15.35;67.38;98330.94;10527826;28;20056;-71
2023/05/20 05:46:47;;;;;;;16.17;11.23;;;;;;;15.84;64.92;98322.50;10526932;28;20094;-71
2023/05/20 05:52:08;;;;;;;15.73;11.68;;;;;;;16.34;64.30;98326.63;10499674;28;20071;-71
2023/05/20 05:57:29;;;;;;;18.50;11.80;;;;;;;16.50;63.10;98331.06;10527146;28;20165;-71
2023/05/20 06:02:51;;;;;;;20.42;12.02;;;;;;;16.44;62.40;98313.81;10499121;28;20040;-71
2023/05/20 06:08:25;;;;;;;17.70;11.95;;;;;;;16.18;61.95;98318.75;10526710;28;20123;-71
2023/05/20 06:13:46;;;;;;;19.33;13.02;;;;;;;16.49;60.31;98309.84;10526617;28;20466;-71
2023/05/20 06:19:08;;;;;;;17.08;13.13;;;;;;;16.75;57.81;98315.47;10512337;28;20131;-71
2023/05/20 06:24:29;;;;;;;17.77;12.60;;;;;;;16.97;57.91;98310.97;10526093;28;20120;-71
2023/05/20 06:29:50;;;;;;;18.63;13.20;;;;;;;17.65;56.11;98300.94;10525432;28;20087;-71
2023/05/20 06:35:11;;;;;;;17.45;12.48;;;;;;;18.46;54.16;98324.56;10511646;28;20115;-71
2023/05/20 06:40:32;;;;;;;16.73;12.80;;;;;;;19.29;51.94;98330.34;10511554;28;20123;-71
2023/05/20 06:45:53;;;;;;;16.42;12.65;;;;;;;19.05;49.17;98320.84;10511230;28;20118;-71
2023/05/20 06:51:23;;;;;;;18.08;13.65;;;;;;;18.91;50.44;98328.69;10512356;28;20044;-69
2023/05/20 06:56:44;;;;;;;16.17;12.40;;;;;;;18.51;51.49;98314.19;10525055;28;20119;-71
2023/05/20 07:02:06;;;;;;;19.95;13.30;;;;;;;18.71;51.29;98303.81;10497272;28;20067;-71
2023/05/20 07:07:27;;;;;;;17.10;12.63;;;;;;;19.99;50.27;98297.88;10524350;28;20618;-69
2023/05/20 07:12:48;;;;;;;17.85;12.20;;;;;;;21.05;47.05;98298.25;10524549;28;20558;-69
2023/05/20 07:18:09;;;;;;;15.60;12.20;;;;;;;20.50;45.86;98290.59;10496651;28;20127;-68
2023/05/20 07:23:30;;;;;;;19.27;12.88;;;;;;;20.98;45.31;98285.22;10510409;28;20068;-69
2023/05/20 07:28:51;;;;;;;14.32;11.80;;;;;;;22.19;43.97;98287.78;10524212;28;20201;-69
2023/05/20 07:34:12;;;;;;;16.25;11.75;;;;;;;22.28;42.33;98283.81;10510300;28;20166;-69
2023/05/20 07:39:33;;;;;;;15.90;11.63;;;;;;;22.76;41.83;98275.22;10510623;28;20566;-69
2023/05/20 07:44:54;;;;;;;14.77;10.52;;;;;;;23.56;41.03;98281.66;10523604;28;20200;-69
2023/05/20 07:50:15;;;;;;;14.68;11.15;;;;;;;23.99;40.07;98271.28;10523730;28;20044;-69
2023/05/20 07:55:36;;;;;;;13.25;10.98;;;;;;;24.62;38.93;98274.81;10523989;28;20119;-69
2023/05/20 08:00:59;;;;;;;15.07;10.88;;;;;;;23.83;38.62;98268.03;10523742;28;20040;-71
2023/05/20 08:06:20;;;;;;;12.25;10.20;;;;;;;23.27;39.47;98260.28;10524326;28;20111;-71
2023/05/20 08:11:41;;;;;;;15.48;10.93;;;;;;;23.57;39.85;98256.72;10531318;28;20040;-71
2023/05/20 08:17:05;;;;;;;12.73;9.80;;;;;;;24.14;38.19;98258.09;10517726;28;20048;-71
2023/05/20 08:22:26;;;;;;;12.50;10.07;;;;;;;24.30;37.44;98246.28;10516913;28;20044;-71
2023/05/20 08:27:48;;;;;;;14.82;10.30;;;;;;;24.65;37.50;98244.91;10516810;28;20059;-71
2023/05/20 08:33:11;;;;;;;12.45;9.48;;;;;;;24.88;37.21;98260.31;10545055;28;20466;-71
2023/05/20 08:38:32;;;;;;;12.57;9.05;;;;;;;24.47;37.94;98248.81;10530274;28;20402;-71
2023/05/20 08:43:53;;;;;;;13.48;9.05;;;;;;;24.95;37.99;98236.19;10530501;28;20470;-71
2023/05/20 08:49:15;;;;;;;12.45;9.77;;;;;;;25.57;35.64;98238.69;10529910;28;20122;-71
2023/05/20 08:54:46;;;;;;;13.00;8.98;;;;;;;26.30;35.30;98239.81;10544940;28;20054;-71
2023/05/20 09:00:12;;;;;;;9.95;8.38;;;;;;;26.07;35.23;98230.19;10529552;28;20535;-71
2023/05/20 09:05:33;;;;;;;12.05;8.40;;;;;;;25.71;35.41;98235.38;10516564;28;20390;-71
2023/05/20 09:10:55;;;;;;;15.00;9.97;;;;;;;24.43;37.33;98230.91;10529111;28;20054;-71
2023/05/20 09:16:16;;;;;;;13.68;9.25;;;;;;;24.54;37.28;98224.72;10528735;28;20308;-71
2023/05/20 09:21:37;;;;;;;10.53;8.37;;;;;;;24.55;38.40;98243.28;10527386;28;20047;-71
2023/05/20 09:26:59;;;;;;;10.80;8.13;;;;;;;24.82;37.73;98230.25;10514542;28;20119;-71
2023/05/20 09:32:20;;;;;;;12.48;9.10;;;;;;;25.63;36.76;98227.38;10514060;28;20066;-71
2023/05/20 09:37:41;;;;;;;10.37;8.20;;;;;;;25.29;37.43;98231.13;10514574;28;20478;-71
2023/05/20 09:43:03;;;;;;;13.85;8.52;;;;;;;25.53;37.25;98224.34;10527701;28;20051;-71
2023/05/20 09:48:26;;;;;;;10.77;8.30;;;;;;;26.09;36.82;98223.78;10513906;28;20075;-71
2023/05/20 09:53:47;;;;;;;9.90;7.38;;;;;;;26.81;35.94;98220.38;10527309;28;20044;-71
2023/05/20 09:59:08;;;;;;;11.02;7.80;;;;;;;26.29;35.20;98215.47;10513447;28;20055;-71
2023/05/20 10:04:29;;;;;;;10.88;7.97;;;;;;;25.75;37.07;98201.84;10498808;28;20460;-71
2023/05/20 10:09:53;;;;;;;11.38;7.53;;;;;;;26.91;36.05;98203.31;10512717;28;20044;-72
2023/05/20 10:15:30;;;;;;;9.80;7.53;;;;;;;27.83;34.70;98186.91;10541600;28;20406;-71
2023/05/20 10:20:51;;;;;;;9.13;7.45;;;;;;;28.03;33.42;98180.56;10541133;28;20115;-72
2023/05/20 10:26:12;;;;;;;11.20;7.37;;;;;;;28.34;33.72;98184.31;10526201;28;20457;-71
2023/05/20 10:31:49;;;;;;;9.88;7.22;;;;;;;28.44;32.73;98179.31;10511137;28;20470;-71
2023/05/20 10:37:20;;;;;;;9.35;7.78;;;;;;;27.80;33.11;98176.88;10512677;28;20495;-71
2023/05/20 10:42:41;;;;;;;10.52;6.85;;;;;;;26.41;35.47;98175.56;10511858;28;20044;-72
2023/05/20 10:48:02;;;;;;;9.43;7.37;;;;;;;27.03;35.24;98166.22;10525241;28;20044;-71
2023/05/20 10:53:25;;;;;;;11.23;7.53;;;;;;;27.28;35.14;98154.97;10511277;28;20044;-71
2023/05/20 10:58:54;;;;;;;13.13;7.60;;;;;;;27.30;35.18;98146.38;10513165;28;20040;-71
2023/05/20 11:04:16;;;;;;;10.13;7.22;;;;;;;27.25;35.04;98134.16;10539736;28;20044;-71
2023/05/20 11:09:37;;;;;;;;;;;;;;;27.12;35.38;98131.91;10525490;28;20037;-71
2023/05/20 11:14:58;;;;;;;12.00;8.02;;;;;;;26.74;36.13;98119.41;10539443;28;20251;-71
2023/05/20 11:20:23;;;;;;;8.90;8.00;;;;;;;27.05;35.61;98114.69;10510576;28;20040;-72
2023/05/20 11:25:44;;;;;;;11.38;7.68;;;;;;;26.14;36.19;98125.16;10524438;28;20044;-72
2023/05/20 11:31:05;;;;;;;11.90;7.45;;;;;;;25.78;37.41;98117.56;10524146;28;20063;-71
2023/05/20 11:36:27;;;;;;;12.30;7.35;;;;;;;26.76;36.59;98102.22;10524462;28;20051;-72
2023/05/20 11:41:48;;;;;;;9.18;7.30;;;;;;;27.13;36.61;98099.00;10540865;28;20405;-72
2023/05/20 11:47:09;;;;;;;11.55;8.80;;;;;;;27.70;34.80;98091.50;10532462;28;20056;-72
2023/05/20 11:52:32;;;;;;;10.63;7.75;;;;;;;26.95;35.97;98105.25;10532146;28;20067;-72
2023/05/20 11:57:55;;;;;;;9.30;7.20;;;;;;;27.18;36.18;98095.44;10531812;28;20040;-72
2023/05/20 12:03:16;;;;;;;11.35;7.10;;;;;;;27.06;35.55;98090.34;10517936;28;20402;-72
2023/05/20 12:08:37;;;;;;;8.67;7.57;;;;;;;26.86;36.45;98080.84;10503750;28;20048;-72
2023/05/20 12:13:59;;;;;;;11.07;7.70;;;;;;;25.59;39.03;98081.56;10517628;28;20537;-72
2023/05/20 12:19:20;;;;;;;11.68;7.78;;;;;;;25.81;39.42;98084.72;10546088;28;20052;-71
2023/05/20 12:24:41;;;;;;;9.90;7.77;;;;;;;25.71;38.82;98078.88;10531198;28;20482;-72
2023/05/20 12:30:04;;;;;;;14.18;7.90;;;;;;;25.79;39.15;98086.84;10530316;28;20052;-72
2023/05/20 12:35:35;;;;;;;9.93;7.20;;;;;;;26.06;38.31;98085.03;10530963;28;20448;-72
2023/05/20 12:40:56;;;;;;;10.07;7.45;;;;;;;25.95;38.23;98092.75;10503930;28;20418;-72
2023/05/20 12:46:17;;;;;;;9.87;7.23;;;;;;;24.88;40.21;98077.59;10516135;28;20052;-72
2023/05/20 12:51:38;;;;;;;10.45;7.88;;;;;;;25.15;40.80;98081.63;10529786;28;20036;-72
2023/05/20 12:56:59;;;;;;;11.13;7.10;;;;;;;25.39;39.63;98062.72;10529677;28;20105;-72
2023/05/20 13:02:20;;;;;;;10.02;7.20;;;;;;;25.71;39.15;98058.16;10529259;28;20497;-72
2023/05/20 13:07:42;;;;;;;12.45;7.20;;;;;;;25.00;39.90;98049.97;10515166;28;20497;-72
2023/05/20 13:13:03;;;;;;;9.23;6.75;;;;;;;24.88;40.43;98066.19;10515143;28;20040;-72
2023/05/20 13:18:24;;;;;;;12.60;6.82;;;;;;;24.96;40.75;98035.63;10543990;28;20471;-72
2023/05/20 13:23:45;;;;;;;12.15;7.13;;;;;;;24.85;41.12;98034.03;10528468;28;20371;-72
2023/05/20 13:29:06;;;;;;;12.43;7.75;;;;;;;24.68;40.35;98035.19;10527998;28;20060;-71
2023/05/20 13:34:28;;;;;;;9.68;7.80;;;;;;;23.81;43.37;98029.31;10514309;28;20044;-69
2023/05/20 13:39:50;;;;;;;9.35;7.22;;;;;;;23.62;44.44;98024.66;10528370;28;20087;-70
2023/05/20 13:45:11;;;;;;;11.05;7.40;;;;;;;23.65;44.21;98029.72;10513770;28;20067;-70
2023/05/20 13:50:31;;;;;;;10.10;7.25;;;;;;;23.59;44.01;98012.50;10541447;28;20040;-69
2023/05/20 13:55:53;;;;;;;9.30;7.20;;;;;;;23.50;44.02;98013.69;10513578;28;20032;-70
2023/05/20 14:01:14;;;;;;;10.82;7.55;;;;;;;23.73;44.39;98014.19;10513095;28;20052;-70
2023/05/20 14:06:35;;;;;;;9.50;6.40;;;;;;;23.80;43.62;98025.03;10526240;28;20064;-70
2023/05/20 14:11:56;;;;;;;8.95;6.50;;;;;;;23.28;44.23;98010.38;10498578;28;20064;-70
2023/05/20 14:17:16;;;;;;;11.20;7.05;;;;;;;23.04;44.52;98013.41;10498546;28;20506;-70
2023/05/20 14:22:37;;;;;;;9.88;6.38;;;;;;;23.27;44.74;98008.94;10511985;28;20078;-70
2023/05/20 14:27:58;;;;;;;10.40;6.28;;;;;;;23.51;44.17;98003.75;10512176;28;20036;-70
2023/05/20 14:33:19;;;;;;;7.65;6.07;;;;;;;23.62;43.14;97996.88;10525618;28;20063;-70
2023/05/20 14:38:39;;;;;;;10.90;6.10;;;;;;;23.94;42.28;97996.06;10497406;28;20047;-70
2023/05/20 14:44:00;;;;;;;8.05;5.93;;;;;;;23.91;41.93;97991.72;10511817;28;20097;-70
2023/05/20 14:49:21;;;;;;;8.73;5.88;;;;;;;23.81;41.61;97995.09;10511216;28;20044;-70
2023/05/20 14:54:42;;;;;;;6.63;5.47;;;;;;;23.34;41.71;97976.31;10511528;28;20040;-70
2023/05/20 15:00:04;;;;;;;9.98;5.40;;;;;;;23.20;42.10;97993.13;10510901;28;20394;-70
2023/05/20 15:05:25;;;;;;;10.93;5.78;;;;;;;23.33;42.09;97977.72;10524848;28;20043;-70
2023/05/20 15:10:46;;;;;;;9.38;5.47;;;;;;;23.14;41.76;97980.19;10510773;28;20040;-70
2023/05/20 15:16:07;;;;;;;7.93;5.53;;;;;;;23.12;41.25;97968.03;10523824;28;20040;-70
2023/05/20 15:21:29;;;;;;;8.63;5.70;;;;;;;23.16;41.16;97975.94;10510597;28;20040;-70
2023/05/20 15:26:51;;;;;;;8.82;5.15;;;;;;;23.23;40.64;97964.00;10510752;28;20044;-70
2023/05/20 15:32:12;;;;;;;8.02;5.82;;;;;;;23.50;40.25;97973.81;10524089;28;20401;-70
2023/05/20 15:37:33;;;;;;;11.48;5.45;;;;;;;23.78;39.55;97956.59;10507097;28;20135;-70
2023/05/20 15:42:55;;;;;;;11.90;5.88;;;;;;;23.94;38.85;97956.16;10524231;28;20078;-71
2023/05/20 15:48:16;;;;;;;9.57;5.55;;;;;;;23.93;38.16;97943.31;10523941;28;20036;-70
2023/05/20 15:53:38;;;;;;;9.70;5.28;;;;;;;23.99;35.00;97958.41;10510073;28;20036;-70
2023/05/20 15:59:00;;;;;;;;;;;;;;;24.08;34.80;97933.59;10510940;28;20044;-71
2023/05/20 16:04:21;;;;;;;9.55;5.43;;;;;;;24.19;34.05;97932.34;10538701;28;19924;-70
2023/05/20 16:09:43;;;;;;;11.70;5.57;;;;;;;24.02;34.46;97936.34;10523608;28;20424;-70
2023/05/20 16:15:05;;;;;;;10.00;5.60;;;;;;;23.83;35.56;97920.31;10537485;28;20111;-70
2023/05/20 16:20:26;;;;;;;6.82;4.75;;;;;;;23.81;35.91;97909.59;10509478;28;20048;-71
2023/05/20 16:25:47;;;;;;;10.52;4.88;;;;;;;23.63;36.02;97924.25;10509216;28;20048;-70
2023/05/20 16:31:08;;;;;;;7.78;5.63;;;;;;;23.31;35.63;97918.63;10501734;28;20148;-71
2023/05/20 16:36:29;;;;;;;7.22;5.05;;;;;;;23.21;36.25;97920.53;10516740;28;20063;-71
2023/05/20 16:41:51;;;;;;;7.22;5.82;;;;;;;23.13;36.65;97915.38;10530265;28;20044;-71
2023/05/20 16:47:13;;;;;;;7.70;5.33;;;;;;;23.06;37.07;97922.34;10530356;28;20047;-71
2023/05/20 16:52:34;;;;;;;8.90;5.63;;;;;;;22.90;37.45;97922.75;10529706;28;20066;-70
2023/05/20 16:57:56;;;;;;;6.78;5.40;;;;;;;22.82;37.89;97911.88;10515784;28;20500;-70
2023/05/20 17:03:18;;;;;;;7.25;5.38;;;;;;;22.71;38.16;97927.28;10515366;28;20055;-70
2023/05/20 17:08:39;;;;;;;11.13;5.63;;;;;;;22.70;37.84;97922.28;10529158;28;20371;-70
2023/05/20 17:14:00;;;;;;;10.15;5.63;;;;;;;22.60;38.64;97931.28;10528845;28;20389;-70
2023/05/20 17:19:21;;;;;;;8.20;5.70;;;;;;;22.59;39.02;97940.50;10514912;28;20478;-69
2023/05/20 17:24:42;;;;;;;9.30;5.75;;;;;;;22.45;39.80;97944.44;10514812;28;20089;-69
2023/05/20 17:30:04;;;;;;;9.80;5.60;;;;;;;22.31;40.85;97941.28;10528409;28;20494;-69
2023/05/20 17:35:26;;;;;;;7.83;5.60;;;;;;;22.16;41.03;97939.47;10528225;28;20040;-69
2023/05/20 17:40:48;;;;;;;8.38;5.78;;;;;;;22.06;41.34;97947.72;10541950;28;20044;-69
2023/05/20 17:46:09;;;;;;;8.00;5.90;;;;;;;21.92;42.30;97948.81;10542887;28;20048;-69
2023/05/20 17:51:31;;;;;;;14.37;6.07;;;;;;;21.79;42.25;97955.53;10527862;28;20040;-69
2023/05/20 17:56:53;;;;;;;11.55;5.97;;;;;;;21.66;43.00;97953.78;10527496;28;20051;-69
2023/05/20 18:02:14;;;;;;;9.02;6.80;;;;;;;21.57;43.07;97964.19;10527278;28;20044;-69
2023/05/20 18:07:36;;;;;;;7.60;5.97;;;;;;;21.42;43.55;97963.09;10542166;28;20051;-69
2023/05/20 18:12:57;;;;;;;8.93;6.40;;;;;;;21.27;43.76;97978.25;10499081;28;20070;-69
2023/05/20 18:18:18;;;;;;;10.93;6.03;;;;;;;21.11;44.28;97975.63;10541396;28;20048;-69
2023/05/20 18:23:39;;;;;;;11.57;6.68;;;;;;;21.02;44.41;97976.03;10498211;28;20148;-69
2023/05/20 18:29:00;;;;;;;11.00;7.00;;;;;;;20.85;44.77;97984.06;10541005;28;20048;-69
2023/05/20 18:34:21;;;;;;;11.75;7.63;;;;;;;20.67;45.67;97986.34;10511849;28;20048;-69
2023/05/20 18:39:42;;;;;;;12.35;8.35;;;;;;;20.49;46.84;98005.59;10540749;28;20055;-69
2023/05/20 18:45:04;;;;;;;15.90;9.02;;;;;;;20.25;46.90;98011.88;10540532;28;20474;-69
2023/05/20 18:50:25;;;;;;;13.88;10.20;;;;;;;20.00;48.92;98009.59;10511195;28;20470;-69
2023/05/20 18:55:46;;;;;;;20.75;11.27;;;;;;;19.76;49.35;98009.47;10525161;28;20062;-70
2023/05/20 19:01:07;;;;;;;21.00;13.15;;;;;;;19.48;50.78;98020.44;10525061;28;20044;-71
2023/05/20 19:06:28;;;;;;;20.33;13.52;;;;;;;19.27;52.40;98018.97;10525033;28;20115;-71
2023/05/20 19:11:54;;;;;;;20.45;14.35;;;;;;;18.95;53.42;98031.88;10510634;28;20093;-70
2023/05/20 19:17:15;;;;;;;23.30;15.18;;;;;;;18.72;54.98;98041.56;10511504;28;20036;-70
2023/05/20 19:22:39;;;;;;;23.15;15.00;;;;;;;18.47;55.44;98034.91;10511448;28;20044;-70
2023/05/20 19:28:00;;;;;;;23.80;15.98;;;;;;;18.34;56.90;98055.56;10510431;28;20048;-70
2023/05/20 19:33:21;;;;;;;24.95;17.58;;;;;;;18.13;57.63;98064.53;10524132;28;20111;-70
2023/05/20 19:38:42;;;;;;;24.13;16.17;;;;;;;17.95;58.10;98056.75;10510116;28;20044;-70
2023/05/20 19:44:03;;;;;;;23.92;16.75;;;;;;;17.84;59.21;98056.91;10510453;28;20093;-70
2023/05/20 19:49:24;;;;;;;23.92;16.52;;;;;;;17.68;60.27;98063.28;10510041;28;20044;-70
2023/05/20 19:54:45;;;;;;;26.17;16.63;;;;;;;17.59;60.52;98060.75;10538101;28;20120;-69
2023/05/20 20:00:07;;;;;;;26.70;17.27;;;;;;;17.49;60.99;98049.72;10523713;28;20071;-71
2023/05/20 20:05:32;;;;;;;27.90;17.10;;;;;;;17.33;61.45;98072.28;10544645;28;20109;-70
2023/05/20 20:10:54;;;;;;;24.52;16.77;;;;;;;17.23;62.19;98071.81;10517601;28;20040;-71
2023/05/20 20:16:14;;;;;;;26.58;17.33;;;;;;;17.13;62.11;98079.78;10517414;28;20051;-71
2023/05/20 20:21:35;;;;;;;24.98;17.42;;;;;;;17.00;62.72;98072.13;10531285;28;20576;-70
2023/05/20 20:26:57;;;;;;;27.27;17.48;;;;;;;16.87;63.67;98068.72;10516906;28;20071;-71
2023/05/20 20:32:17;;;;;;;24.65;17.20;;;;;;;16.78;63.59;98066.88;10545715;28;20147;-70
2023/05/20 20:37:38;;;;;;;28.05;18.25;;;;;;;16.68;64.13;98069.19;10502526;28;20060;-71
2023/05/20 20:42:59;;;;;;;27.98;18.77;;;;;;;16.59;64.54;98076.50;10530493;28;20123;-71
2023/05/20 20:48:25;;;;;;;25.33;17.70;;;;;;;16.54;64.63;98074.84;10502118;28;20174;-71
2023/05/20 20:53:47;;;;;;;27.60;17.95;;;;;;;16.43;64.93;98080.59;10502534;28;20112;-71
2023/05/20 20:59:09;;;;;;;26.15;18.13;;;;;;;16.36;66.28;98084.47;10516161;28;20136;-71
2023/05/20 21:04:29;;;;;;;30.77;18.10;;;;;;;16.31;66.39;98081.47;10529469;28;20147;-71
2023/05/20 21:09:53;;;;;;;27.73;19.10;;;;;;;16.21;66.92;98083.00;10529287;28;20115;-71
2023/05/20 21:15:14;;;;;;;28.20;17.95;;;;;;;16.15;67.20;98086.25;10529334;28;20115;-71
2023/05/20 21:20:35;;;;;;;26.00;18.23;;;;;;;16.06;67.42;98075.22;10515871;28;20420;-70
2023/05/20 21:25:55;;;;;;;30.05;18.67;;;;;;;15.97;68.43;98071.25;10515695;28;20123;-71
2023/05/20 21:31:16;;;;;;;26.13;17.92;;;;;;;15.91;68.81;98074.47;10514769;28;20126;-71
2023/05/20 21:36:37;;;;;;;28.40;19.50;;;;;;;15.87;69.46;98076.34;10527486;28;20478;-71
2023/05/20 21:41:57;;;;;;;28.25;19.08;;;;;;;15.78;70.22;98075.19;10512745;28;20123;-70
2023/05/20 21:47:19;;;;;;;28.60;18.35;;;;;;;15.74;70.92;98078.53;10512188;28;20070;-70
2023/05/20 21:52:40;;;;;;;30.17;18.38;;;;;;;15.75;71.00;98076.47;10525872;28;20044;-70
2023/05/20 21:58:01;;;;;;;31.50;18.52;;;;;;;15.65;71.47;98061.84;10540831;28;20067;-70
2023/05/20 22:03:22;;;;;;;26.02;19.38;;;;;;;15.62;71.84;98074.34;10526042;28;20131;-70
2023/05/20 22:08:43;;;;;;;28.55;20.30;;;;;;;15.58;72.59;98077.66;10511461;28;20093;-70
2023/05/20 22:14:03;;;;;;;30.58;19.60;;;;;;;15.54;72.66;98063.38;10510995;28;20450;-70
2023/05/20 22:19:25;;;;;;;28.48;20.00;;;;;;;15.48;72.55;98065.84;10538949;28;20098;-70
2023/05/20 22:24:46;;;;;;;28.08;19.48;;;;;;;15.45;73.11;98067.84;10510383;28;20119;-70
2023/05/20 22:30:08;;;;;;;25.90;18.63;;;;;;;15.39;74.06;98063.97;10494098;28;1306423;-70
2023/05/20 22:35:29;;;;;;;30.55;20.38;;;;;;;15.36;74.52;98057.50;10526158;28;20115;-70
2023/05/20 22:40:50;;;;;;;26.13;19.20;;;;;;;15.30;74.87;98054.34;10540840;28;20125;-70
2023/05/20 22:46:10;;;;;;;33.38;21.98;;;;;;;15.21;74.91;98052.44;10525538;28;20111;-70
2023/05/20 22:51:33;;;;;;;29.95;21.08;;;;;;;15.20;75.73;98053.06;10511603;28;20449;-70
2023/05/20 22:56:57;;;;;;;31.13;20.65;;;;;;;15.09;76.08;98046.91;10525578;28;20151;-70
2023/05/20 23:02:18;;;;;;;30.40;21.08;;;;;;;15.08;76.19;98033.47;10513416;22;20168;-70
2023/05/20 23:07:39;;;;;;;32.08;21.08;;;;;;;15.02;77.20;98036.66;10456987;28;20056;-70
2023/05/20 23:13:00;;;;;;;30.67;21.45;;;;;;;14.97;77.38;98035.00;10441777;28;20542;-70
2023/05/20 23:18:20;;;;;;;29.80;21.55;;;;;;;14.91;76.65;98019.88;10441703;28;20168;-70
2023/05/20 23:23:41;;;;;;;31.70;20.92;;;;;;;14.83;77.41;98015.25;10441626;28;20045;-70
2023/05/20 23:29:02;;;;;;;30.08;21.30;;;;;;;14.81;77.76;98014.44;10427787;28;20183;-70
2023/05/20 23:34:23;;;;;;;29.10;21.85;;;;;;;14.77;78.21;98017.03;10427743;28;20071;-70
2023/05/20 23:39:44;;;;;;;32.70;21.98;;;;;;;14.68;78.86;98007.41;10461068;28;20132;-70
2023/05/20 23:45:05;;;;;;;34.85;22.08;;;;;;;14.63;79.25;98010.59;10436266;28;20429;-70
2023/05/20 23:50:31;;;;;;;30.20;21.58;;;;;;;14.57;78.71;98013.78;10435683;28;20116;-70
2023/05/20 23:55:52;;;;;;;31.85;21.67;;;;;;;14.51;79.24;98010.66;10464170;28;20068;-70
